createdAt,value
2022-11-25T00:01:07.684Z,20.26
2022-11-25T00:03:36.080Z,20.20
2022-11-25T00:06:13.005Z,20.22
2022-11-25T00:08:40.570Z,20.24
2022-11-25T00:11:07.991Z,20.19
2022-11-25T00:13:35.528Z,20.21
2022-11-25T00:16:03.658Z,20.20
2022-11-25T00:18:31.111Z,20.21
2022-11-25T00:20:58.520Z,20.21
2022-11-25T00:23:31.970Z,20.20
2022-11-25T00:26:07.000Z,20.20
2022-11-25T00:28:34.407Z,20.21
2022-11-25T00:31:05.871Z,20.22
2022-11-25T00:33:33.283Z,20.22
2022-11-25T00:36:01.875Z,20.18
2022-11-25T00:38:30.556Z,20.21
2022-11-25T00:41:11.980Z,20.19
2022-11-25T00:43:57.089Z,20.20
2022-11-25T00:46:24.504Z,20.19
2022-11-25T00:48:51.929Z,20.21
2022-11-25T00:51:19.551Z,20.18
2022-11-25T00:53:48.264Z,20.23
2022-11-25T00:56:15.741Z,20.18
2022-11-25T00:58:43.409Z,20.19
2022-11-25T01:01:11.385Z,20.10
2022-11-25T01:03:39.017Z,20.05
2022-11-25T01:06:07.627Z,20.01
2022-11-25T01:08:35.712Z,20.01
2022-11-25T01:11:06.397Z,20.02
2022-11-25T01:13:33.817Z,20.02
2022-11-25T01:16:02.040Z,20.02
2022-11-25T01:18:29.627Z,19.99
2022-11-25T01:20:57.182Z,19.98
2022-11-25T01:23:25.682Z,20.00
2022-11-25T01:25:53.724Z,19.98
2022-11-25T01:28:22.451Z,19.98
2022-11-25T01:31:00.262Z,20.00
2022-11-25T01:33:27.681Z,19.96
2022-11-25T01:35:55.096Z,19.96
2022-11-25T01:38:22.823Z,19.98
2022-11-25T01:40:50.219Z,19.98
2022-11-25T01:43:17.646Z,19.95
2022-11-25T01:45:46.598Z,19.97
2022-11-25T01:48:15.818Z,19.97
2022-11-25T01:50:43.343Z,19.96
2022-11-25T01:53:11.605Z,19.97
2022-11-25T01:55:39.659Z,19.94
2022-11-25T01:58:08.022Z,19.95
2022-11-25T02:00:35.480Z,19.93
2022-11-25T02:03:06.222Z,19.93
2022-11-25T02:05:37.307Z,19.94
2022-11-25T02:08:04.920Z,19.92
2022-11-25T02:10:32.965Z,19.92
2022-11-25T02:13:00.379Z,19.94
2022-11-25T02:15:27.857Z,19.90
2022-11-25T02:17:55.271Z,19.93
2022-11-25T02:20:24.493Z,19.92
2022-11-25T02:22:59.762Z,19.90
2022-11-25T02:25:29.869Z,19.89
2022-11-25T02:27:58.610Z,19.93
2022-11-25T02:30:26.032Z,19.89
2022-11-25T02:32:54.347Z,19.93
2022-11-25T02:35:27.802Z,19.91
2022-11-25T02:37:56.695Z,19.90
2022-11-25T02:40:24.212Z,19.89
2022-11-25T02:42:52.919Z,19.91
2022-11-25T02:45:21.921Z,19.87
2022-11-25T02:47:49.347Z,19.92
2022-11-25T02:50:16.784Z,19.88
2022-11-25T02:52:45.190Z,19.92
2022-11-25T02:55:12.611Z,19.93
2022-11-25T02:57:40.069Z,19.90
2022-11-25T03:00:09.959Z,19.99
2022-11-25T03:02:37.808Z,20.10
2022-11-25T03:05:05.564Z,20.13
2022-11-25T03:07:32.995Z,20.13
2022-11-25T03:10:00.969Z,20.17
2022-11-25T03:12:29.543Z,20.14
2022-11-25T03:14:58.277Z,20.09
2022-11-25T03:17:27.020Z,20.09
2022-11-25T03:19:55.285Z,20.07
2022-11-25T03:22:22.732Z,20.10
2022-11-25T03:24:50.159Z,20.11
2022-11-25T03:27:17.576Z,20.09
2022-11-25T03:29:45.001Z,20.10
2022-11-25T03:32:13.334Z,20.11
2022-11-25T03:34:42.073Z,20.08
2022-11-25T03:37:10.080Z,20.09
2022-11-25T03:39:38.217Z,20.10
2022-11-25T03:42:07.183Z,20.12
2022-11-25T03:44:34.932Z,20.12
2022-11-25T03:47:02.653Z,20.11
2022-11-25T03:49:30.286Z,20.11
2022-11-25T03:51:59.020Z,20.11
2022-11-25T03:54:26.687Z,20.10
2022-11-25T03:57:19.110Z,20.12
2022-11-25T03:59:46.532Z,20.11
2022-11-25T04:02:14.757Z,20.13
2022-11-25T04:04:42.223Z,20.09
2022-11-25T04:07:10.971Z,20.11
2022-11-25T04:09:38.797Z,20.13
2022-11-25T04:12:25.587Z,20.14
2022-11-25T04:14:56.405Z,20.12
2022-11-25T04:17:23.874Z,20.12
2022-11-25T04:19:52.164Z,20.12
2022-11-25T04:22:20.873Z,20.13
2022-11-25T04:24:51.706Z,20.10
2022-11-25T04:27:24.449Z,20.12
2022-11-25T04:29:53.100Z,20.12
2022-11-25T04:32:22.806Z,20.12
2022-11-25T04:34:50.393Z,20.12
2022-11-25T04:37:18.692Z,20.15
2022-11-25T04:39:47.474Z,20.14
2022-11-25T04:42:34.454Z,20.15
2022-11-25T04:47:56.127Z,20.12
2022-11-25T04:50:24.071Z,20.12
2022-11-25T04:53:06.526Z,20.16
2022-11-25T04:55:35.405Z,20.10
2022-11-25T04:58:06.705Z,19.99
2022-11-25T05:00:34.859Z,19.99
2022-11-25T05:03:03.172Z,19.96
2022-11-25T05:05:32.092Z,19.94
2022-11-25T05:08:00.231Z,19.94
2022-11-25T05:10:28.336Z,19.95
2022-11-25T05:12:57.256Z,19.92
2022-11-25T05:15:24.682Z,19.90
2022-11-25T05:17:53.727Z,19.93
2022-11-25T05:20:35.352Z,19.92
2022-11-25T05:23:03.108Z,19.92
2022-11-25T05:25:30.959Z,19.92
2022-11-25T05:28:17.750Z,19.93
2022-11-25T05:30:45.629Z,19.88
2022-11-25T05:33:13.208Z,19.88
2022-11-25T05:35:40.664Z,19.89
2022-11-25T05:38:08.456Z,19.88
2022-11-25T05:40:37.085Z,19.88
2022-11-25T05:43:09.365Z,19.92
2022-11-25T05:45:40.818Z,19.89
2022-11-25T05:48:10.144Z,19.90
2022-11-25T05:50:37.793Z,19.88
2022-11-25T05:53:17.192Z,19.88
2022-11-25T05:55:45.290Z,19.85
2022-11-25T05:58:24.064Z,19.87
2022-11-25T06:00:56.015Z,19.87
2022-11-25T06:03:25.406Z,19.86
2022-11-25T06:05:52.895Z,19.89
2022-11-25T06:08:20.492Z,19.90
2022-11-25T06:10:47.939Z,19.99
2022-11-25T06:13:15.349Z,20.03
2022-11-25T06:15:43.099Z,19.95
2022-11-25T06:18:13.253Z,19.91
2022-11-25T06:20:40.700Z,19.89
2022-11-25T06:23:08.857Z,19.84
2022-11-25T06:25:37.788Z,19.84
2022-11-25T06:28:14.015Z,19.81
2022-11-25T06:30:47.033Z,19.80
2022-11-25T06:33:22.335Z,19.96
2022-11-25T06:35:50.482Z,19.98
2022-11-25T06:38:17.890Z,19.89
2022-11-25T06:40:45.301Z,19.88
2022-11-25T06:43:12.724Z,19.96
2022-11-25T06:45:40.168Z,19.95
2022-11-25T06:48:07.587Z,19.99
2022-11-25T06:50:36.305Z,19.98
2022-11-25T06:53:03.731Z,19.97
2022-11-25T06:55:31.403Z,20.01
2022-11-25T06:58:20.283Z,19.97
2022-11-25T07:00:46.236Z,19.86
2022-11-25T07:03:13.712Z,19.81
2022-11-25T07:05:42.436Z,19.80
2022-11-25T07:08:09.865Z,19.78
2022-11-25T07:10:37.268Z,19.84
2022-11-25T07:13:04.709Z,19.96
2022-11-25T07:15:32.129Z,19.97
2022-11-25T07:17:59.547Z,19.97
2022-11-25T07:20:27.743Z,19.98
2022-11-25T07:22:56.454Z,19.98
2022-11-25T07:25:29.365Z,19.97
2022-11-25T07:27:58.788Z,19.99
2022-11-25T07:31:21.786Z,19.97
2022-11-25T07:33:14.642Z,19.97
2022-11-25T07:35:42.092Z,19.98
2022-11-25T07:38:10.776Z,20.00
2022-11-25T07:40:38.197Z,19.97
2022-11-25T07:43:05.600Z,19.99
2022-11-25T07:45:33.021Z,19.96
2022-11-25T07:48:08.761Z,19.95
2022-11-25T07:50:36.183Z,19.94
2022-11-25T07:53:03.590Z,19.97
2022-11-25T07:55:32.307Z,19.97
2022-11-25T07:57:59.737Z,19.98
2022-11-25T08:00:27.305Z,19.95
2022-11-25T08:02:55.086Z,19.97
2022-11-25T08:05:22.554Z,19.95
2022-11-25T08:07:50.017Z,19.96
2022-11-25T08:10:17.503Z,19.98
2022-11-25T08:12:46.198Z,19.97
2022-11-25T08:15:13.687Z,19.95
2022-11-25T08:17:41.106Z,19.95
2022-11-25T08:20:09.434Z,19.96
2022-11-25T08:22:36.842Z,19.95
2022-11-25T08:25:04.352Z,19.97
2022-11-25T08:27:31.773Z,19.98
2022-11-25T08:30:00.579Z,19.98
2022-11-25T08:32:28.050Z,19.98
2022-11-25T08:34:55.468Z,19.99
2022-11-25T08:37:23.039Z,19.99
2022-11-25T08:39:53.282Z,19.99
2022-11-25T08:42:21.205Z,20.04
2022-11-25T08:44:52.606Z,20.04
2022-11-25T08:47:21.300Z,20.03
2022-11-25T08:49:51.492Z,20.03
2022-11-25T08:52:18.956Z,20.05
2022-11-25T08:54:46.395Z,20.01
2022-11-25T08:57:13.871Z,20.01
2022-11-25T08:59:41.328Z,20.03
2022-11-25T09:02:09.511Z,20.03
2022-11-25T09:04:38.356Z,20.04
2022-11-25T09:07:06.001Z,20.02
2022-11-25T09:09:33.497Z,20.01
2022-11-25T09:12:00.966Z,20.03
2022-11-25T09:14:28.428Z,20.01
2022-11-25T09:16:57.033Z,20.02
2022-11-25T09:19:24.450Z,20.05
2022-11-25T09:21:53.226Z,20.03
2022-11-25T09:24:20.633Z,20.04
2022-11-25T09:26:49.272Z,20.03
2022-11-25T09:29:16.682Z,20.05
2022-11-25T09:31:44.181Z,20.06
2022-11-25T09:34:11.706Z,20.03
2022-11-25T09:36:39.270Z,19.95
2022-11-25T09:39:08.133Z,19.90
2022-11-25T09:42:01.262Z,19.86
2022-11-25T09:44:53.338Z,19.84
2022-11-25T09:47:24.836Z,19.83
2022-11-25T09:50:00.940Z,19.80
2022-11-25T09:52:33.128Z,19.80
2022-11-25T09:55:06.328Z,19.81
2022-11-25T09:57:39.188Z,19.80
2022-11-25T10:00:07.650Z,19.78
2022-11-25T10:02:42.253Z,19.77
2022-11-25T10:05:13.107Z,19.76
2022-11-25T10:07:41.836Z,19.77
2022-11-25T10:10:16.520Z,19.79
2022-11-25T10:12:44.591Z,19.78
2022-11-25T10:15:15.036Z,19.77
2022-11-25T10:17:44.651Z,19.73
2022-11-25T10:20:15.027Z,19.80
2022-11-25T10:22:43.622Z,19.78
2022-11-25T10:25:16.063Z,19.77
2022-11-25T10:27:44.815Z,19.75
2022-11-25T10:30:16.473Z,19.76
2022-11-25T10:32:45.359Z,19.80
2022-11-25T10:35:18.353Z,19.81
2022-11-25T10:37:46.065Z,19.78
2022-11-25T10:40:16.529Z,19.84
2022-11-25T10:42:44.055Z,20.03
2022-11-25T10:45:11.668Z,20.08
2022-11-25T10:47:50.184Z,20.11
2022-11-25T10:50:18.617Z,20.09
2022-11-25T10:52:49.887Z,20.12
2022-11-25T10:55:19.453Z,20.03
2022-11-25T10:57:46.903Z,19.94
2022-11-25T11:00:29.587Z,19.94
2022-11-25T11:02:57.182Z,19.93
2022-11-25T11:05:25.565Z,19.92
2022-11-25T11:08:09.001Z,19.89
2022-11-25T11:10:37.770Z,19.84
2022-11-25T11:13:05.986Z,19.80
2022-11-25T11:15:34.121Z,19.80
2022-11-25T11:18:15.055Z,19.76
2022-11-25T11:20:46.462Z,19.78
2022-11-25T11:23:14.853Z,19.75
2022-11-25T11:25:43.954Z,19.75
2022-11-25T11:28:34.684Z,19.75
2022-11-25T11:31:03.352Z,19.83
2022-11-25T11:33:43.539Z,19.90
2022-11-25T11:36:26.585Z,19.97
2022-11-25T11:38:54.969Z,19.94
2022-11-25T11:41:32.040Z,19.95
2022-11-25T11:44:06.051Z,19.97
2022-11-25T11:46:43.237Z,20.05
2022-11-25T11:49:20.809Z,20.03
2022-11-25T11:51:52.685Z,20.04
2022-11-25T11:54:23.493Z,20.06
2022-11-25T11:56:55.609Z,20.05
2022-11-25T11:59:42.453Z,20.10
2022-11-25T12:02:21.014Z,20.32
2022-11-25T12:04:52.954Z,20.23
2022-11-25T12:07:22.135Z,20.20
2022-11-25T12:09:52.238Z,20.18
2022-11-25T12:12:20.924Z,20.15
2022-11-25T12:14:50.051Z,20.10
2022-11-25T12:17:19.029Z,20.09
2022-11-25T12:19:51.346Z,20.06
2022-11-25T12:22:20.464Z,20.07
2022-11-25T12:24:51.107Z,20.07
2022-11-25T12:27:19.870Z,20.04
2022-11-25T12:29:50.571Z,20.00
2022-11-25T12:32:31.385Z,20.02
2022-11-25T12:35:01.984Z,20.02
2022-11-25T12:37:32.870Z,19.99
2022-11-25T12:40:03.825Z,19.96
2022-11-25T12:42:31.398Z,19.97
2022-11-25T12:45:01.694Z,19.97
2022-11-25T12:47:29.109Z,19.98
2022-11-25T12:49:56.634Z,19.97
2022-11-25T12:52:40.287Z,19.96
2022-11-25T12:55:13.417Z,19.96
2022-11-25T12:57:59.727Z,19.98
2022-11-25T13:00:44.858Z,20.30
2022-11-25T13:03:31.773Z,20.43
2022-11-25T13:06:05.736Z,20.48
2022-11-25T13:08:45.633Z,20.48
2022-11-25T13:11:33.734Z,20.47
2022-11-25T13:14:03.202Z,20.52
2022-11-25T13:16:32.713Z,20.51
2022-11-25T13:19:00.521Z,20.53
2022-11-25T13:21:29.039Z,20.59
2022-11-25T13:23:57.183Z,20.57
2022-11-25T13:26:49.658Z,20.57
2022-11-25T13:30:00.865Z,20.58
2022-11-25T13:32:48.357Z,20.60
2022-11-25T13:35:37.746Z,20.58
2022-11-25T13:38:46.844Z,20.60
2022-11-25T13:41:34.491Z,20.61
2022-11-25T13:44:05.833Z,20.57
2022-11-25T13:46:38.300Z,20.56
2022-11-25T13:49:07.189Z,20.61
2022-11-25T13:51:34.600Z,20.61
2022-11-25T13:54:02.384Z,20.64
2022-11-25T13:56:30.631Z,20.62
2022-11-25T13:59:20.882Z,20.63
2022-11-25T14:01:54.763Z,20.60
2022-11-25T14:04:31.757Z,20.63
2022-11-25T14:07:04.910Z,20.64
2022-11-25T14:09:39.293Z,20.62
2022-11-25T14:12:34.481Z,20.57
2022-11-25T14:15:23.005Z,20.49
2022-11-25T14:18:12.451Z,20.57
2022-11-25T14:20:44.239Z,20.59
2022-11-25T14:23:46.129Z,20.48
2022-11-25T14:26:42.230Z,20.46
2022-11-25T14:29:05.181Z,20.43
2022-11-25T14:31:37.517Z,20.40
2022-11-25T14:34:07.716Z,20.40
2022-11-25T14:36:40.019Z,20.39
2022-11-25T14:39:09.866Z,20.39
2022-11-25T14:41:38.652Z,20.37
2022-11-25T14:44:06.796Z,20.37
2022-11-25T14:46:34.191Z,20.34
2022-11-25T14:49:03.317Z,20.38
2022-11-25T14:51:34.945Z,20.38
2022-11-25T14:54:04.928Z,20.37
2022-11-25T14:56:33.695Z,20.36
2022-11-25T14:59:01.122Z,20.35
2022-11-25T15:01:29.165Z,20.37
2022-11-25T15:04:04.071Z,20.36
2022-11-25T15:06:34.506Z,20.39
2022-11-25T15:09:01.939Z,20.38
2022-11-25T15:11:31.607Z,20.37
2022-11-25T15:14:00.172Z,20.34
2022-11-25T15:16:32.380Z,20.37
2022-11-25T15:19:00.580Z,20.37
2022-11-25T15:21:30.068Z,20.35
2022-11-25T15:23:57.506Z,20.35
2022-11-25T15:26:25.811Z,20.34
2022-11-25T15:28:56.839Z,20.35
2022-11-25T15:31:27.362Z,20.36
2022-11-25T15:33:57.527Z,20.37
2022-11-25T15:36:25.053Z,20.34
2022-11-25T15:38:52.484Z,20.33
2022-11-25T15:41:22.184Z,20.29
2022-11-25T15:43:50.244Z,20.26
2022-11-25T15:46:19.182Z,20.24
2022-11-25T15:48:47.327Z,20.18
2022-11-25T15:51:30.608Z,20.33
2022-11-25T15:53:59.649Z,20.49
2022-11-25T15:56:27.201Z,20.55
2022-11-25T15:58:58.773Z,20.59
2022-11-25T16:01:30.755Z,20.60
2022-11-25T16:04:10.510Z,20.61
2022-11-25T16:06:37.939Z,20.60
2022-11-25T16:09:05.897Z,20.60
2022-11-25T16:11:45.356Z,20.56
2022-11-25T16:14:19.697Z,20.56
2022-11-25T16:16:48.496Z,20.59
2022-11-25T16:19:17.566Z,20.57
2022-11-25T16:21:53.509Z,20.54
2022-11-25T16:24:33.365Z,20.55
2022-11-25T16:27:01.569Z,20.53
2022-11-25T16:29:31.561Z,20.50
2022-11-25T16:32:00.453Z,20.47
2022-11-25T16:34:27.977Z,20.46
2022-11-25T16:36:55.396Z,20.43
2022-11-25T16:39:22.807Z,20.40
2022-11-25T16:41:56.429Z,20.38
2022-11-25T16:44:24.658Z,20.39
2022-11-25T16:46:52.115Z,20.42
2022-11-25T16:49:21.114Z,20.41
2022-11-25T16:51:50.400Z,20.42
2022-11-25T16:54:18.456Z,20.39
2022-11-25T16:56:45.856Z,20.37
2022-11-25T16:59:15.833Z,20.36
2022-11-25T17:01:43.637Z,20.35
2022-11-25T17:04:12.293Z,20.35
2022-11-25T17:06:42.132Z,20.38
2022-11-25T17:09:09.588Z,20.39
2022-11-25T17:11:46.128Z,20.38
2022-11-25T17:14:25.693Z,20.33
2022-11-25T17:16:53.540Z,20.33
2022-11-25T17:19:21.240Z,20.33
2022-11-25T17:21:50.067Z,20.34
2022-11-25T17:24:18.700Z,20.38
2022-11-25T17:26:47.172Z,20.42
2022-11-25T17:29:17.824Z,20.43
2022-11-25T17:31:45.361Z,20.42
2022-11-25T17:34:17.314Z,20.42
2022-11-25T17:36:45.057Z,20.45
2022-11-25T17:39:14.300Z,20.47
2022-11-25T17:41:43.680Z,20.49
2022-11-25T17:44:19.532Z,20.50
2022-11-25T17:46:46.938Z,20.49
2022-11-25T17:49:14.917Z,20.48
2022-11-25T17:51:43.525Z,20.50
2022-11-25T17:54:10.979Z,20.50
2022-11-25T17:56:39.818Z,20.49
2022-11-25T17:59:11.840Z,20.49
2022-11-25T18:01:39.312Z,20.54
2022-11-25T18:04:16.522Z,20.53
2022-11-25T18:06:44.087Z,20.47
2022-11-25T18:09:11.659Z,20.45
2022-11-25T18:11:42.695Z,20.41
2022-11-25T18:14:14.421Z,20.38
2022-11-25T18:16:42.490Z,20.36
2022-11-25T18:19:12.260Z,20.54
2022-11-25T18:21:39.669Z,20.57
2022-11-25T18:24:07.165Z,20.55
2022-11-25T18:26:38.031Z,20.60
2022-11-25T18:29:07.967Z,20.60
2022-11-25T18:31:35.509Z,20.60
2022-11-25T18:34:02.939Z,20.60
2022-11-25T18:36:30.417Z,20.56
2022-11-25T18:38:57.913Z,20.47
2022-11-25T18:41:26.824Z,20.41
2022-11-25T18:43:54.237Z,20.40
2022-11-25T18:46:22.968Z,20.40
2022-11-25T18:48:53.106Z,20.37
2022-11-25T18:51:20.524Z,20.38
2022-11-25T18:53:47.937Z,20.41
2022-11-25T18:56:17.990Z,20.39
2022-11-25T18:58:46.806Z,20.40
2022-11-25T19:01:14.525Z,20.38
2022-11-25T19:03:43.342Z,20.38
2022-11-25T19:06:14.592Z,20.38
2022-11-25T19:08:42.037Z,20.38
2022-11-25T19:11:12.702Z,20.39
2022-11-25T19:13:40.137Z,20.37
2022-11-25T19:16:08.911Z,20.38
2022-11-25T19:18:36.603Z,20.36
2022-11-25T19:21:05.549Z,20.38
2022-11-25T19:23:35.865Z,20.39
2022-11-25T19:26:07.519Z,20.36
2022-11-25T19:28:34.933Z,20.39
2022-11-25T19:31:03.173Z,20.56
2022-11-25T19:33:33.020Z,20.57
2022-11-25T19:36:00.474Z,20.60
2022-11-25T19:38:30.915Z,20.65
2022-11-25T19:40:58.367Z,20.58
2022-11-25T19:43:27.012Z,20.57
2022-11-25T19:45:54.583Z,20.62
2022-11-25T19:48:22.195Z,20.66
2022-11-25T19:50:51.854Z,20.63
2022-11-25T19:53:20.216Z,20.64
2022-11-25T19:55:48.959Z,20.64
2022-11-25T19:58:16.398Z,20.66
2022-11-25T20:00:44.238Z,20.66
2022-11-25T20:03:14.227Z,20.66
2022-11-25T20:05:41.644Z,20.63
2022-11-25T20:08:11.460Z,20.66
2022-11-25T20:10:38.893Z,20.62
2022-11-25T20:13:08.224Z,20.51
2022-11-25T20:15:35.682Z,20.45
2022-11-25T20:18:03.083Z,20.38
2022-11-25T20:20:32.688Z,20.36
2022-11-25T20:23:01.102Z,20.33
2022-11-25T20:25:28.655Z,20.31
2022-11-25T20:27:56.059Z,20.30
2022-11-25T20:30:25.475Z,20.31
2022-11-25T20:32:52.878Z,20.31
2022-11-25T20:35:20.819Z,20.30
2022-11-25T20:38:00.217Z,20.27
2022-11-25T20:40:33.270Z,20.27
2022-11-25T20:43:00.729Z,20.28
2022-11-25T20:45:29.496Z,20.26
2022-11-25T20:47:58.879Z,20.27
2022-11-25T20:50:26.334Z,20.26
2022-11-25T20:52:53.762Z,20.26
2022-11-25T20:55:23.304Z,20.28
2022-11-25T20:57:51.691Z,20.29
2022-11-25T21:00:20.317Z,20.24
2022-11-25T21:02:49.108Z,20.25
2022-11-25T21:05:16.767Z,20.22
2022-11-25T21:07:44.227Z,20.23
2022-11-25T21:10:18.366Z,20.23
2022-11-25T21:12:45.769Z,20.22
2022-11-25T21:15:14.654Z,20.22
2022-11-25T21:17:42.081Z,20.24
2022-11-25T21:20:12.369Z,20.21
2022-11-25T21:22:41.319Z,20.20
2022-11-25T21:25:11.621Z,20.22
2022-11-25T21:27:39.024Z,20.20
2022-11-25T21:30:07.747Z,20.22
2022-11-25T21:32:35.169Z,20.23
2022-11-25T21:35:03.933Z,20.20
2022-11-25T21:37:33.438Z,20.31
2022-11-25T21:40:00.845Z,20.36
2022-11-25T21:42:28.286Z,20.31
2022-11-25T21:44:55.700Z,20.27
2022-11-25T21:47:24.110Z,20.22
2022-11-25T21:49:51.668Z,20.22
2022-11-25T21:52:19.162Z,20.22
2022-11-25T21:54:48.884Z,20.17
2022-11-25T21:57:16.853Z,20.20
2022-11-25T21:59:44.998Z,20.18
2022-11-25T22:02:16.544Z,20.21
2022-11-25T22:04:43.993Z,20.18
2022-11-25T22:07:11.435Z,20.19
2022-11-25T22:09:38.926Z,20.19
2022-11-25T22:12:08.044Z,20.18
2022-11-25T22:14:38.227Z,20.34
2022-11-25T22:17:07.401Z,20.35
2022-11-25T22:19:34.802Z,20.29
2022-11-25T22:22:02.220Z,20.27
2022-11-25T22:24:30.617Z,20.22
2022-11-25T22:27:00.052Z,20.22
2022-11-25T22:29:35.619Z,20.20
2022-11-25T22:32:07.017Z,20.17
2022-11-25T22:34:37.396Z,20.17
2022-11-25T22:37:05.148Z,20.19
2022-11-25T22:39:32.574Z,20.18
2022-11-25T22:42:03.610Z,20.16
2022-11-25T22:44:33.891Z,20.17
2022-11-25T22:47:01.316Z,20.13
2022-11-25T22:49:31.349Z,20.16
2022-11-25T22:51:58.960Z,20.18
2022-11-25T22:54:26.361Z,20.14
2022-11-25T22:56:53.820Z,20.15
2022-11-25T22:59:21.231Z,20.16
2022-11-25T23:01:49.989Z,20.15
2022-11-25T23:04:18.603Z,20.17
2022-11-25T23:06:46.073Z,20.14
2022-11-25T23:09:15.087Z,20.15
2022-11-25T23:11:42.568Z,20.18
2022-11-25T23:14:11.149Z,20.39
2022-11-25T23:16:38.892Z,20.45
2022-11-25T23:19:07.844Z,20.49
2022-11-25T23:21:35.241Z,20.49
2022-11-25T23:24:02.695Z,20.49
2022-11-25T23:26:35.038Z,20.50
2022-11-25T23:29:02.747Z,20.51
2022-11-25T23:31:30.234Z,20.52
2022-11-25T23:33:57.741Z,20.54
2022-11-25T23:36:27.138Z,20.54
2022-11-25T23:38:55.765Z,20.53
2022-11-25T23:41:23.959Z,20.53
2022-11-25T23:43:51.404Z,20.66
2022-11-25T23:46:20.083Z,20.73
2022-11-25T23:48:52.939Z,20.75
2022-11-25T23:51:20.992Z,20.76
2022-11-25T23:53:49.774Z,20.77
2022-11-25T23:56:17.231Z,20.77
2022-11-25T23:58:44.697Z,20.79
